createdAt,value
2022-09-20T00:02:50.881Z,3.53
2022-09-20T00:08:17.627Z,4.35
2022-09-20T00:13:42.559Z,2.58
2022-09-20T00:19:07.061Z,1.50
2022-09-20T00:24:35.563Z,2.10
2022-09-20T00:29:59.378Z,6.38
2022-09-20T00:35:24.393Z,2.60
2022-09-20T00:40:49.576Z,4.00
2022-09-20T00:46:23.427Z,3.00
2022-09-20T00:51:55.702Z,2.33
2022-09-20T00:57:21.037Z,1.40
2022-09-20T01:02:49.401Z,3.15
2022-09-20T01:08:15.105Z,3.33
2022-09-20T01:13:40.604Z,3.72
2022-09-20T01:19:17.606Z,5.95
2022-09-20T01:24:49.489Z,2.28
2022-09-20T01:30:20.157Z,5.60
2022-09-20T01:35:48.750Z,3.08
2022-09-20T01:41:21.995Z,1.77
2022-09-20T01:46:54.084Z,1.50
2022-09-20T01:52:56.988Z,3.78
2022-09-20T01:59:07.160Z,3.97
2022-09-20T02:05:05.843Z,2.42
2022-09-20T02:10:51.036Z,3.03
2022-09-20T02:16:40.886Z,3.22
2022-09-20T02:22:18.419Z,7.70
2022-09-20T02:27:58.069Z,1.52
2022-09-20T02:33:45.406Z,1.92
2022-09-20T02:39:17.715Z,6.80
2022-09-20T02:44:50.669Z,4.40
2022-09-20T02:50:26.167Z,2.30
2022-09-20T02:56:04.210Z,12.60
2022-09-20T03:01:44.332Z,14.43
2022-09-20T03:07:20.022Z,2.60
2022-09-20T03:12:58.513Z,1.88
2022-09-20T03:18:35.514Z,1.60
2022-09-20T03:24:11.265Z,2.85
2022-09-20T03:29:50.149Z,3.28
2022-09-20T03:35:28.594Z,4.75
2022-09-20T03:41:11.073Z,3.92
2022-09-20T03:46:45.560Z,6.47
2022-09-20T03:52:26.902Z,4.50
2022-09-20T03:58:14.843Z,5.30
2022-09-20T04:03:50.446Z,4.95
2022-09-20T04:09:45.016Z,9.02
2022-09-20T04:15:23.594Z,5.22
2022-09-20T04:20:52.163Z,4.28
2022-09-20T04:26:23.576Z,11.15
2022-09-20T04:31:54.598Z,4.38
2022-09-20T04:37:27.769Z,3.75
2022-09-20T04:43:33.466Z,2.92
2022-09-20T04:49:23.173Z,7.82
2022-09-20T04:55:31.251Z,1.10
2022-09-20T05:01:24.671Z,2.20
2022-09-20T05:07:17.046Z,3.85
2022-09-20T05:13:05.461Z,6.65
2022-09-20T05:19:10.301Z,2.00
2022-09-20T05:25:03.110Z,2.90
2022-09-20T05:30:38.068Z,8.40
2022-09-20T05:36:10.665Z,2.17
2022-09-20T05:41:44.152Z,3.22
2022-09-20T05:47:19.365Z,4.65
2022-09-20T05:52:53.814Z,7.70
2022-09-20T05:58:33.317Z,4.47
2022-09-20T06:04:10.450Z,2.07
2022-09-20T06:10:01.605Z,3.30
2022-09-20T06:15:35.348Z,5.85
2022-09-20T06:21:14.654Z,7.13
2022-09-20T06:26:44.708Z,4.75
2022-09-20T06:32:09.623Z,5.75
2022-09-20T06:38:03.262Z,3.25
2022-09-20T06:43:31.620Z,6.43
2022-09-20T06:48:59.225Z,3.60
2022-09-20T06:54:27.154Z,5.45
2022-09-20T06:59:51.741Z,3.42
2022-09-20T07:05:18.053Z,2.97
2022-09-20T07:10:45.229Z,2.70
2022-09-20T07:16:12.850Z,6.22
2022-09-20T07:21:37.493Z,5.47
2022-09-20T07:27:06.780Z,3.60
2022-09-20T07:32:31.054Z,5.30
2022-09-20T07:37:58.327Z,5.68
2022-09-20T07:43:23.944Z,7.18
2022-09-20T07:48:47.640Z,5.72
2022-09-20T07:54:12.144Z,4.38
2022-09-20T07:59:37.650Z,3.22
2022-09-20T08:05:01.716Z,5.03
2022-09-20T08:10:26.831Z,3.95
2022-09-20T08:15:52.283Z,3.00
2022-09-20T08:21:19.019Z,4.03
2022-09-20T08:26:43.770Z,2.03
2022-09-20T08:32:09.293Z,4.75
2022-09-20T08:37:33.796Z,3.63
2022-09-20T08:42:58.632Z,2.55
2022-09-20T08:48:28.685Z,4.90
2022-09-20T08:53:57.026Z,2.50
2022-09-20T08:59:26.030Z,1.63
2022-09-20T09:04:53.852Z,1.60
2022-09-20T09:10:18.190Z,4.03
2022-09-20T09:15:46.520Z,7.40
2022-09-20T09:21:20.490Z,2.05
2022-09-20T09:26:44.874Z,2.17
2022-09-20T09:32:24.609Z,3.42
2022-09-20T09:37:57.619Z,14.05
2022-09-20T09:43:27.047Z,2.33
2022-09-20T09:49:10.513Z,3.58
2022-09-20T09:54:40.264Z,13.60
2022-09-20T10:00:19.610Z,8.60
2022-09-20T10:05:56.835Z,12.75
2022-09-20T10:11:32.044Z,12.90
2022-09-20T10:17:13.508Z,24.00
2022-09-20T10:23:00.326Z,6.90
2022-09-20T10:28:50.792Z,8.48
2022-09-20T10:34:39.582Z,15.30
2022-09-20T10:40:18.906Z,4.32
2022-09-20T10:46:14.374Z,13.20
2022-09-20T10:51:47.917Z,8.80
2022-09-20T10:57:41.193Z,14.85
2022-09-20T11:03:22.265Z,9.38
2022-09-20T11:08:50.943Z,8.32
2022-09-20T11:14:19.573Z,5.05
2022-09-20T11:19:53.270Z,3.40
2022-09-20T11:25:22.342Z,6.18
2022-09-20T11:30:56.838Z,6.47
2022-09-20T11:36:29.509Z,6.38
2022-09-20T11:41:56.960Z,3.92
2022-09-20T11:47:49.800Z,6.38
2022-09-20T11:53:21.737Z,15.55
2022-09-20T11:58:49.064Z,10.52
2022-09-20T12:04:38.599Z,14.68
2022-09-20T12:10:09.478Z,20.05
2022-09-20T12:15:39.124Z,13.35
2022-09-20T12:21:15.951Z,7.10
2022-09-20T12:26:49.375Z,7.47
2022-09-20T12:32:41.020Z,8.65
2022-09-20T12:38:18.432Z,9.88
2022-09-20T12:43:57.700Z,11.02
2022-09-20T12:50:07.800Z,9.65
2022-09-20T12:55:43.839Z,9.68
2022-09-20T13:01:40.493Z,18.02
2022-09-20T13:07:44.171Z,15.18
2022-09-20T13:13:31.508Z,12.45
2022-09-20T13:19:05.303Z,9.10
2022-09-20T13:24:33.716Z,5.15
2022-09-20T13:30:11.123Z,5.93
2022-09-20T13:35:36.415Z,5.80
2022-09-20T13:41:06.361Z,17.10
2022-09-20T13:46:33.272Z,14.60
2022-09-20T13:51:58.576Z,6.18
2022-09-20T13:57:27.220Z,7.57
2022-09-20T14:02:54.690Z,5.40
2022-09-20T14:08:25.760Z,8.02
2022-09-20T14:13:54.191Z,9.50
2022-09-20T14:19:24.592Z,5.60
2022-09-20T14:25:02.692Z,10.38
2022-09-20T14:30:31.063Z,5.32
2022-09-20T14:35:55.545Z,14.73
2022-09-20T14:41:34.038Z,9.90
2022-09-20T14:46:59.246Z,10.75
2022-09-20T14:52:36.634Z,12.35
2022-09-20T14:58:08.480Z,8.15
2022-09-20T15:03:34.682Z,13.60
2022-09-20T15:09:01.108Z,5.07
2022-09-20T15:14:27.306Z,6.45
2022-09-20T15:19:53.862Z,10.07
2022-09-20T15:25:20.881Z,7.55
2022-09-20T15:30:46.949Z,6.97
2022-09-20T15:36:11.875Z,4.70
2022-09-20T15:41:37.127Z,14.18
2022-09-20T15:47:04.552Z,15.13
2022-09-20T15:52:34.594Z,29.17
2022-09-20T15:57:58.924Z,20.05
2022-09-20T16:03:31.132Z,9.23
2022-09-20T16:08:56.547Z,6.28
2022-09-20T16:14:20.720Z,7.65
2022-09-20T16:19:48.700Z,8.02
2022-09-20T16:25:13.419Z,7.37
2022-09-20T16:30:37.425Z,6.30
2022-09-20T16:36:03.511Z,4.32
2022-09-20T16:41:29.113Z,9.15
2022-09-20T16:46:53.331Z,7.43
2022-09-20T16:52:18.824Z,9.93
2022-09-20T16:57:43.736Z,5.88
2022-09-20T17:03:08.291Z,3.70
2022-09-20T17:08:38.832Z,8.52
2022-09-20T17:14:03.080Z,7.72
2022-09-20T17:19:28.877Z,6.28
2022-09-20T17:24:54.854Z,5.78
2022-09-20T17:30:19.655Z,2.42
2022-09-20T17:35:52.466Z,26.90
2022-09-20T17:41:20.776Z,21.73
2022-09-20T17:46:48.000Z,16.25
2022-09-20T17:52:12.992Z,22.23
2022-09-20T17:57:39.092Z,26.13
2022-09-20T18:03:05.104Z,21.90
2022-09-20T18:08:29.138Z,19.27
2022-09-20T18:13:55.544Z,14.45
2022-09-20T18:19:21.484Z,8.23
2022-09-20T18:24:46.296Z,5.95
2022-09-20T18:30:13.841Z,4.38
2022-09-20T18:35:42.791Z,6.10
2022-09-20T18:41:09.043Z,6.30
2022-09-20T18:46:37.946Z,5.40
2022-09-20T18:52:02.800Z,8.63
2022-09-20T18:57:27.777Z,15.43
2022-09-20T19:03:08.102Z,24.27
2022-09-20T19:08:39.492Z,17.58
2022-09-20T19:14:13.404Z,13.18
2022-09-20T19:19:48.217Z,10.45
2022-09-20T19:25:23.932Z,6.50
2022-09-20T19:30:49.049Z,4.63
2022-09-20T19:36:16.708Z,4.78
2022-09-20T19:41:51.039Z,6.72
2022-09-20T19:47:26.214Z,4.65
2022-09-20T19:52:52.207Z,4.80
2022-09-20T19:58:17.271Z,11.20
2022-09-20T20:03:47.607Z,7.72
2022-09-20T20:09:24.932Z,10.93
2022-09-20T20:14:58.353Z,9.35
2022-09-20T20:20:30.247Z,9.70
2022-09-20T20:26:03.374Z,8.38
2022-09-20T20:31:29.531Z,8.88
2022-09-20T20:37:01.003Z,16.05
2022-09-20T20:42:27.333Z,9.88
2022-09-20T20:47:57.333Z,9.77
2022-09-20T20:53:23.449Z,5.07
2022-09-20T20:58:50.026Z,7.68
2022-09-20T21:04:16.928Z,5.85
2022-09-20T21:09:41.802Z,7.13
2022-09-20T21:15:09.129Z,7.10
2022-09-20T21:20:39.378Z,9.85
2022-09-20T21:26:08.500Z,5.32
2022-09-20T21:31:36.361Z,6.50
2022-09-20T21:37:01.192Z,6.88
2022-09-20T21:42:27.284Z,11.93
2022-09-20T21:47:54.449Z,4.07
2022-09-20T21:53:20.619Z,4.28
2022-09-20T21:58:45.983Z,3.95
2022-09-20T22:04:13.201Z,4.20
2022-09-20T22:09:40.132Z,3.27
2022-09-20T22:15:06.128Z,3.42
2022-09-20T22:20:32.364Z,3.88
2022-09-20T22:26:00.666Z,11.00
2022-09-20T22:31:27.272Z,5.30
2022-09-20T22:36:53.934Z,7.82
2022-09-20T22:42:19.089Z,3.42
2022-09-20T22:47:44.939Z,4.38
2022-09-20T22:53:10.947Z,2.47
2022-09-20T22:58:37.943Z,2.22
2022-09-20T23:04:07.776Z,2.38
2022-09-20T23:09:35.447Z,10.60
2022-09-20T23:15:00.151Z,2.60
2022-09-20T23:20:24.974Z,2.13
2022-09-20T23:25:51.363Z,1.58
2022-09-20T23:31:17.578Z,1.95
2022-09-20T23:36:42.522Z,1.42
2022-09-20T23:42:08.814Z,1.60
2022-09-20T23:47:33.485Z,1.52
2022-09-20T23:52:58.056Z,2.17
2022-09-20T23:58:25.087Z,1.30
